Time;durP1;ratioP1;P1;durP2;ratioP2;P2;SDS_P1;SDS_P2;PMS_P1;PMS_P2;Temp;Humidity;BMP_temperature;BMP_pressure;BME280_temperature;BME280_humidity;BME280_pressure;Samples;Min_cycle;Max_cycle;Signal;HPM_P1;HPM_P2
2023/07/28 00:00:21;;;;;;;6.53;6.03;;;;;;;16.63;100.00;100357.38;4989141;28;20026;-60
2023/07/28 00:02:46;;;;;;;7.95;6.93;;;;;;;16.63;100.00;100361.75;4987903;28;20114;-60
2023/07/28 00:05:12;;;;;;;7.75;6.47;;;;;;;16.63;100.00;100356.50;4988829;28;20035;-60
2023/07/28 00:07:37;;;;;;;6.40;5.90;;;;;;;16.63;100.00;100351.28;4989262;28;20459;-60
2023/07/28 00:10:03;;;;;;;7.18;6.47;;;;;;;16.63;100.00;100351.28;4988787;28;20510;-61
2023/07/28 00:12:28;;;;;;;6.43;5.93;;;;;;;16.63;100.00;100341.69;4989412;28;20029;-60
2023/07/28 00:14:53;;;;;;;7.45;6.75;;;;;;;16.63;100.00;100346.03;4988738;28;20029;-61
2023/07/28 00:17:18;;;;;;;7.18;6.47;;;;;;;16.62;100.00;100339.09;4988795;28;20030;-60
2023/07/28 00:19:44;;;;;;;7.65;6.18;;;;;;;16.63;100.00;100346.03;4988705;28;20551;-61
2023/07/28 00:22:09;;;;;;;6.70;6.20;;;;;;;16.62;100.00;100334.69;4988890;28;20069;-60
2023/07/28 00:24:34;;;;;;;7.18;6.57;;;;;;;16.60;100.00;100344.31;4988495;28;20026;-60
2023/07/28 00:26:59;;;;;;;7.28;6.65;;;;;;;16.59;100.00;100341.69;4989163;28;20550;-60
2023/07/28 00:29:25;;;;;;;7.65;6.95;;;;;;;16.59;100.00;100347.78;4988286;28;20030;-60
2023/07/28 00:31:50;;;;;;;7.50;6.80;;;;;;;16.61;100.00;100343.44;4988872;28;20362;-60
2023/07/28 00:34:15;;;;;;;7.45;6.82;;;;;;;16.60;100.00;100339.09;4988209;28;20096;-60
2023/07/28 00:36:40;;;;;;;7.57;6.97;;;;;;;16.59;100.00;100346.91;4988536;28;20109;-60
2023/07/28 00:39:06;;;;;;;8.70;7.68;;;;;;;16.59;100.00;100349.53;4988630;28;20048;-59
2023/07/28 00:41:31;;;;;;;9.18;8.35;;;;;;;16.59;100.00;100336.44;4989053;28;20036;-60
2023/07/28 00:43:59;;;;;;;8.02;7.32;;;;;;;16.55;100.00;100339.06;4988844;28;20069;-60
2023/07/28 00:46:24;;;;;;;9.18;8.48;;;;;;;16.55;100.00;100327.72;4989003;28;20109;-60
2023/07/28 00:48:50;;;;;;;9.32;8.55;;;;;;;16.55;100.00;100328.63;4988418;28;20034;-61
2023/07/28 00:51:15;;;;;;;9.45;8.75;;;;;;;16.56;100.00;100319.91;4988499;28;20026;-61
2023/07/28 00:53:40;;;;;;;9.15;8.30;;;;;;;16.55;100.00;100317.28;4988719;28;20034;-60
2023/07/28 00:56:07;;;;;;;9.60;8.75;;;;;;;16.54;100.00;100324.28;4988567;28;20475;-60
2023/07/28 00:58:32;;;;;;;9.27;8.57;;;;;;;16.54;100.00;100318.16;4988729;28;20187;-60
2023/07/28 01:00:58;;;;;;;9.40;8.50;;;;;;;16.53;100.00;100319.91;4987935;28;20113;-60
2023/07/28 01:03:24;;;;;;;10.15;9.25;;;;;;;16.56;100.00;100325.16;4988262;28;20432;-60
2023/07/28 01:06:29;;;;;;;11.02;10.05;;;;;;;16.55;100.00;100336.47;4988298;28;20038;-60
2023/07/28 01:09:09;;;;;;;10.75;9.85;;;;;;;16.53;100.00;100340.81;4988350;28;20063;-61
2023/07/28 01:11:34;;;;;;;10.67;9.77;;;;;;;16.56;100.00;100333.00;4988138;28;20042;-60
2023/07/28 01:14:00;;;;;;;11.88;9.93;;;;;;;16.56;100.00;100342.56;4988236;28;20742;-60
2023/07/28 01:16:25;;;;;;;10.98;9.93;;;;;;;16.56;100.00;100339.97;4988301;28;20058;-60
2023/07/28 01:18:51;;;;;;;10.65;9.75;;;;;;;16.56;100.00;100345.19;4988438;28;20415;-60
2023/07/28 01:21:28;;;;;;;10.73;9.63;;;;;;;16.52;100.00;100344.31;4987832;28;20545;-61
2023/07/28 01:24:08;;;;;;;11.38;10.27;;;;;;;16.52;100.00;100340.81;4991732;28;20542;-60
2023/07/28 01:26:37;;;;;;;10.88;9.82;;;;;;;16.54;100.00;100342.56;4991928;28;20030;-61
2023/07/28 01:29:04;;;;;;;10.88;9.80;;;;;;;16.57;100.00;100346.91;4992143;28;20041;-61
2023/07/28 01:31:30;;;;;;;9.60;8.77;;;;;;;16.60;100.00;100346.06;4992132;28;20030;-60
2023/07/28 01:33:55;;;;;;;11.25;10.25;;;;;;;16.58;100.00;100348.69;4992030;28;20472;-60
2023/07/28 01:36:20;;;;;;;11.88;9.82;;;;;;;16.59;100.00;100349.53;4991849;28;20073;-60
2023/07/28 01:38:46;;;;;;;9.70;8.80;;;;;;;16.59;100.00;100344.28;4991860;28;20534;-60
2023/07/28 01:41:11;;;;;;;10.73;9.73;;;;;;;16.59;100.00;100357.38;4991723;28;20037;-60
2023/07/28 01:43:37;;;;;;;10.20;9.30;;;;;;;16.61;100.00;100353.03;4991957;28;20022;-61
2023/07/28 01:46:02;;;;;;;10.38;9.38;;;;;;;16.62;100.00;100349.53;4992104;28;20430;-60
2023/07/28 01:48:27;;;;;;;9.98;8.73;;;;;;;16.63;100.00;100351.28;4992467;28;20026;-61
2023/07/28 01:50:53;;;;;;;10.43;9.52;;;;;;;16.61;100.00;100355.63;4991286;28;20100;-60
2023/07/28 01:53:18;;;;;;;9.65;8.68;;;;;;;16.64;100.00;100358.28;4991276;28;20094;-60
2023/07/28 01:55:43;;;;;;;10.50;9.50;;;;;;;16.64;100.00;100358.28;4991486;28;20117;-60
2023/07/28 01:58:09;;;;;;;8.90;8.10;;;;;;;16.66;100.00;100351.25;4991419;28;20385;-60
2023/07/28 02:00:35;;;;;;;9.90;8.48;;;;;;;16.65;100.00;100353.03;4991072;28;20023;-60
2023/07/28 02:03:02;;;;;;;10.60;8.95;;;;;;;16.65;100.00;100350.41;4991322;28;20105;-60
2023/07/28 02:05:28;;;;;;;10.13;9.13;;;;;;;16.65;100.00;100347.81;4991572;28;20092;-60
2023/07/28 02:07:53;;;;;;;10.70;9.63;;;;;;;16.67;100.00;100345.19;4991361;28;20030;-60
2023/07/28 02:10:19;;;;;;;10.07;9.07;;;;;;;16.68;100.00;100346.91;4991149;28;20029;-61
2023/07/28 02:12:44;;;;;;;9.98;9.07;;;;;;;16.69;100.00;100356.50;4991013;28;20382;-60
2023/07/28 02:15:10;;;;;;;10.93;9.82;;;;;;;16.66;100.00;100346.91;4991219;28;20471;-60
2023/07/28 02:17:35;;;;;;;10.07;9.07;;;;;;;16.68;100.00;100347.78;4991270;28;20025;-60
2023/07/28 02:20:03;;;;;;;11.20;10.10;;;;;;;16.67;100.00;100339.94;4990887;28;20494;-60
2023/07/28 02:22:28;;;;;;;11.60;10.43;;;;;;;16.69;100.00;100340.81;4991277;28;20025;-60
2023/07/28 02:24:54;;;;;;;13.20;10.98;;;;;;;16.70;100.00;100337.31;4991601;28;20538;-60
2023/07/28 02:27:19;;;;;;;12.02;10.70;;;;;;;16.69;100.00;100330.34;4991350;28;20109;-61
2023/07/28 02:29:45;;;;;;;11.35;10.25;;;;;;;16.69;100.00;100340.81;4990888;28;20459;-60
2023/07/28 02:32:10;;;;;;;12.45;11.18;;;;;;;16.70;100.00;100345.16;4990902;28;20057;-60
2023/07/28 02:34:36;;;;;;;14.32;11.70;;;;;;;16.68;100.00;100352.13;4989725;28;20034;-60
2023/07/28 02:37:01;;;;;;;13.85;11.80;;;;;;;16.66;100.00;100341.69;4991002;28;20028;-60
2023/07/28 02:39:26;;;;;;;13.07;11.43;;;;;;;16.68;100.00;100344.28;4990958;28;20041;-60
2023/07/28 02:41:52;;;;;;;14.05;12.55;;;;;;;16.69;100.00;100348.66;4990092;28;20088;-60
2023/07/28 02:44:17;;;;;;;13.88;12.38;;;;;;;16.68;100.00;100354.75;4990495;28;20031;-61
2023/07/28 02:46:42;;;;;;;17.73;13.73;;;;;;;16.69;100.00;100351.28;4990628;28;20322;-60
2023/07/28 02:49:07;;;;;;;14.52;12.95;;;;;;;16.68;100.00;100350.41;4990889;28;20026;-60
2023/07/28 02:51:35;;;;;;;14.63;12.63;;;;;;;16.68;100.00;100349.53;4991049;28;20089;-60
2023/07/28 02:54:01;;;;;;;16.33;12.63;;;;;;;16.70;100.00;100360.88;4990769;28;20077;-60
2023/07/28 02:56:26;;;;;;;17.52;13.98;;;;;;;16.71;100.00;100362.63;4989934;28;20379;-60
2023/07/28 02:58:51;;;;;;;16.17;13.43;;;;;;;16.69;100.00;100357.38;4990302;28;20498;-60
2023/07/28 03:01:17;;;;;;;16.70;14.20;;;;;;;16.70;100.00;100363.47;4990515;28;20034;-60
2023/07/28 03:03:42;;;;;;;18.52;14.43;;;;;;;16.69;100.00;100369.59;4990445;28;20426;-60
2023/07/28 03:06:08;;;;;;;17.10;14.65;;;;;;;16.70;100.00;100368.72;4990023;28;20030;-60
2023/07/28 03:08:33;;;;;;;17.02;14.63;;;;;;;16.69;100.00;100361.75;4990415;28;20026;-60
2023/07/28 03:10:58;;;;;;;19.23;15.52;;;;;;;16.68;100.00;100366.09;4990169;28;20430;-60
2023/07/28 03:13:24;;;;;;;19.55;15.40;;;;;;;16.67;100.00;100367.00;4989974;28;20032;-62
2023/07/28 03:15:49;;;;;;;20.38;16.63;;;;;;;16.67;100.00;100358.25;4989581;28;20030;-61
2023/07/28 03:18:15;;;;;;;20.45;17.10;;;;;;;16.68;100.00;100367.84;4990247;28;20525;-61
2023/07/28 03:20:40;;;;;;;23.00;16.30;;;;;;;16.67;100.00;100364.38;4990164;28;20069;-60
2023/07/28 03:23:05;;;;;;;20.30;16.15;;;;;;;16.67;100.00;100368.72;4989387;28;20034;-60
2023/07/28 03:25:30;;;;;;;19.23;17.10;;;;;;;16.67;100.00;100368.72;4989915;28;20026;-60
2023/07/28 03:27:56;;;;;;;20.15;17.42;;;;;;;16.67;100.00;100373.94;4990308;28;21377;-60
2023/07/28 03:30:21;;;;;;;18.85;15.20;;;;;;;16.68;100.00;100375.69;4989994;28;20022;-60
2023/07/28 03:32:46;;;;;;;20.05;16.58;;;;;;;16.68;100.00;100376.56;4989666;28;20626;-60
2023/07/28 03:35:12;;;;;;;22.92;17.35;;;;;;;16.69;100.00;100373.06;4989884;28;20018;-61
2023/07/28 03:37:38;;;;;;;21.90;17.73;;;;;;;16.69;100.00;100380.06;4989399;28;20034;-62
2023/07/28 03:40:03;;;;;;;20.48;16.52;;;;;;;16.71;100.00;100385.28;4989718;28;20164;-60
2023/07/28 03:42:29;;;;;;;23.35;17.38;;;;;;;16.71;100.00;100383.53;4989736;28;20022;-60
2023/07/28 03:44:54;;;;;;;22.27;16.52;;;;;;;16.72;100.00;100387.00;4989054;28;20323;-60
2023/07/28 03:47:19;;;;;;;22.75;17.65;;;;;;;16.72;100.00;100398.34;4989309;28;20501;-60
2023/07/28 03:49:45;;;;;;;25.38;17.15;;;;;;;16.71;100.00;100395.75;4989561;28;20030;-60
2023/07/28 03:52:10;;;;;;;23.70;17.60;;;;;;;16.69;100.00;100388.75;4988985;28;20137;-61
2023/07/28 03:54:35;;;;;;;25.58;17.00;;;;;;;16.69;100.00;100395.75;4989062;28;20045;-61
2023/07/28 03:57:00;;;;;;;26.55;18.48;;;;;;;16.69;100.00;100394.00;4989769;28;20038;-60
2023/07/28 03:59:26;;;;;;;25.80;18.48;;;;;;;16.70;100.00;100405.34;4988340;28;20034;-61
2023/07/28 04:01:52;;;;;;;27.42;19.25;;;;;;;16.70;100.00;100397.47;4987437;28;20053;-60
2023/07/28 04:04:18;;;;;;;27.58;19.50;;;;;;;16.70;100.00;100400.09;4987436;28;20615;-60
2023/07/28 04:10:05;;;;;;;23.90;18.50;;;;;;;16.72;100.00;100402.72;5003460;28;20083;-60
2023/07/28 04:12:30;;;;;;;23.92;19.00;;;;;;;16.72;100.00;100392.25;5007931;28;20034;-60
2023/07/28 04:14:55;;;;;;;23.38;19.73;;;;;;;16.67;100.00;100406.22;5005907;28;20540;-61
2023/07/28 04:17:21;;;;;;;23.05;17.80;;;;;;;16.68;100.00;100402.72;5006870;28;20028;-60
2023/07/28 04:19:46;;;;;;;22.45;18.13;;;;;;;16.70;100.00;100400.09;5007283;28;20026;-60
2023/07/28 04:22:11;;;;;;;22.73;17.75;;;;;;;16.71;100.00;100400.97;5008159;28;20490;-61
2023/07/28 04:24:37;;;;;;;22.00;18.92;;;;;;;16.70;100.00;100397.47;5008354;28;20061;-60
2023/07/28 04:27:02;;;;;;;25.10;18.63;;;;;;;16.71;100.00;100396.63;5008166;28;20140;-60
2023/07/28 04:29:27;;;;;;;24.33;17.33;;;;;;;16.72;100.00;100398.34;5008513;28;20045;-60
2023/07/28 04:31:53;;;;;;;23.08;18.15;;;;;;;16.74;100.00;100406.19;5008517;28;20040;-60
2023/07/28 04:34:18;;;;;;;23.65;19.00;;;;;;;16.74;100.00;100406.19;5008560;28;20021;-61
2023/07/28 04:36:43;;;;;;;23.55;17.20;;;;;;;16.74;100.00;100407.09;5008260;28;20069;-60
2023/07/28 04:39:08;;;;;;;19.55;16.35;;;;;;;16.75;100.00;100403.59;5008484;28;20028;-60
2023/07/28 04:41:34;;;;;;;22.35;17.77;;;;;;;16.75;100.00;100398.34;5008231;28;20026;-60
2023/07/28 04:43:59;;;;;;;20.90;17.88;;;;;;;16.74;100.00;100396.63;5007835;28;20026;-59
2023/07/28 04:46:24;;;;;;;24.73;17.92;;;;;;;16.76;100.00;100400.09;5008432;28;20458;-60
2023/07/28 04:48:50;;;;;;;23.20;18.38;;;;;;;16.76;100.00;100400.09;5008391;28;20568;-61
2023/07/28 04:51:15;;;;;;;22.58;17.20;;;;;;;16.76;100.00;100394.88;5008518;28;20029;-60
2023/07/28 04:53:40;;;;;;;26.40;17.98;;;;;;;16.75;100.00;100397.47;5008304;28;20021;-60
2023/07/28 04:56:05;;;;;;;20.13;17.45;;;;;;;16.76;100.00;100402.72;5008672;28;20046;-60
2023/07/28 04:58:31;;;;;;;20.25;16.63;;;;;;;16.75;100.00;100400.97;5014365;28;20026;-60
2023/07/28 05:00:56;;;;;;;21.05;17.73;;;;;;;16.74;100.00;100396.63;5015167;28;20387;-61
2023/07/28 05:03:21;;;;;;;23.05;18.27;;;;;;;16.76;100.00;100400.09;5014874;28;20036;-60
2023/07/28 05:05:46;;;;;;;25.55;18.05;;;;;;;16.75;100.00;100406.19;5014705;28;20045;-61
2023/07/28 05:08:12;;;;;;;22.48;16.83;;;;;;;16.77;100.00;100400.97;5015163;28;20034;-60
2023/07/28 05:10:37;;;;;;;23.30;18.40;;;;;;;16.75;100.00;100400.97;5014836;28;20033;-60
2023/07/28 05:13:05;;;;;;;26.23;17.23;;;;;;;16.75;100.00;100395.72;5014017;28;20025;-60
2023/07/28 05:15:30;;;;;;;25.20;18.75;;;;;;;16.75;100.00;100408.81;5014474;28;20037;-60
2023/07/28 05:17:55;;;;;;;27.08;18.58;;;;;;;16.76;100.00;100415.81;5014631;28;20030;-60
2023/07/28 05:20:21;;;;;;;25.52;19.48;;;;;;;16.78;100.00;100415.81;5014792;28;20054;-60
2023/07/28 05:22:46;;;;;;;30.60;20.85;;;;;;;16.80;100.00;100422.75;5014639;28;20489;-60
2023/07/28 05:25:11;;;;;;;25.23;19.15;;;;;;;16.84;100.00;100422.78;5014234;28;20018;-61
2023/07/28 05:27:37;;;;;;;23.73;18.58;;;;;;;16.83;100.00;100432.38;5014706;28;20057;-60
2023/07/28 05:30:03;;;;;;;24.52;18.73;;;;;;;16.84;100.00;100434.09;5014670;28;20383;-61
2023/07/28 05:32:28;;;;;;;23.90;18.38;;;;;;;16.86;100.00;100436.72;5014621;28;20035;-60
2023/07/28 05:34:53;;;;;;;26.80;19.63;;;;;;;16.84;100.00;100435.88;5014440;28;20029;-60
2023/07/28 05:37:19;;;;;;;27.20;19.83;;;;;;;16.84;100.00;100438.47;5014788;28;20021;-60
2023/07/28 05:39:45;;;;;;;28.27;20.30;;;;;;;16.82;100.00;100435.84;5013949;28;20076;-61
2023/07/28 05:42:10;;;;;;;24.10;19.77;;;;;;;16.84;100.00;100441.09;5014728;28;20092;-60
2023/07/28 05:44:35;;;;;;;26.33;21.27;;;;;;;16.84;100.00;100443.72;5014429;28;20018;-60
2023/07/28 05:47:00;;;;;;;27.70;21.85;;;;;;;16.86;100.00;100444.56;5014210;28;20878;-60
2023/07/28 05:49:26;;;;;;;31.70;23.27;;;;;;;16.88;100.00;100440.19;5014168;28;20029;-60
2023/07/28 05:51:51;;;;;;;30.65;25.67;;;;;;;16.89;100.00;100447.19;5014038;28;20474;-61
2023/07/28 05:54:16;;;;;;;38.28;26.77;;;;;;;16.88;100.00;100446.31;5014007;28;20026;-60
2023/07/28 05:56:42;;;;;;;37.70;27.65;;;;;;;16.91;100.00;100445.44;5014022;28;20406;-60
2023/07/28 05:59:07;;;;;;;37.10;28.25;;;;;;;16.96;100.00;100453.28;5014190;28;20053;-60
2023/07/28 06:01:33;;;;;;;42.53;31.52;;;;;;;16.98;100.00;100449.78;5014485;28;20022;-61
2023/07/28 06:03:59;;;;;;;41.03;30.80;;;;;;;17.02;100.00;100454.16;5014280;28;20057;-62
2023/07/28 06:06:25;;;;;;;38.92;29.35;;;;;;;17.04;100.00;100452.41;5013839;28;20021;-60
2023/07/28 06:08:50;;;;;;;46.90;35.33;;;;;;;17.05;100.00;100455.91;5011685;28;20025;-60
2023/07/28 06:11:16;;;;;;;45.40;33.95;;;;;;;17.06;100.00;100455.03;5010768;28;20021;-61
2023/07/28 06:13:41;;;;;;;47.13;34.42;;;;;;;17.11;100.00;100457.66;5010573;28;20054;-60
2023/07/28 06:16:06;;;;;;;50.10;35.65;;;;;;;17.12;100.00;100452.44;5010925;28;20036;-61
2023/07/28 06:18:32;;;;;;;54.17;37.83;;;;;;;17.15;100.00;100454.16;5011021;28;20021;-61
2023/07/28 06:20:57;;;;;;;51.40;36.42;;;;;;;17.18;100.00;100454.16;5010573;28;20034;-61
2023/07/28 06:23:23;;;;;;;57.17;37.60;;;;;;;17.19;100.00;100458.53;5010226;28;20034;-60
2023/07/28 06:25:49;;;;;;;52.33;37.08;;;;;;;17.18;100.00;100454.16;5010751;28;20198;-61
2023/07/28 06:28:14;;;;;;;50.33;35.70;;;;;;;17.18;100.00;100454.16;5010733;28;20030;-61
2023/07/28 06:30:39;;;;;;;48.65;34.50;;;;;;;17.15;100.00;100460.28;5010883;28;20026;-60
2023/07/28 06:33:09;;;;;;;49.10;33.40;;;;;;;17.20;100.00;100464.66;5010469;28;20037;-61
2023/07/28 06:35:34;;;;;;;47.05;31.48;;;;;;;17.20;100.00;100468.13;5010419;28;20045;-61
2023/07/28 06:38:03;;;;;;;47.08;32.00;;;;;;;17.23;100.00;100468.13;5009818;28;20466;-60
2023/07/28 06:40:29;;;;;;;47.17;30.15;;;;;;;17.24;100.00;100468.97;5010061;28;20037;-61
2023/07/28 06:42:54;;;;;;;43.97;29.35;;;;;;;17.22;100.00;100482.09;5009083;28;20204;-61
2023/07/28 06:45:20;;;;;;;40.30;27.92;;;;;;;17.25;100.00;100479.44;5008859;28;20113;-60
2023/07/28 06:47:46;;;;;;;41.00;28.95;;;;;;;17.28;100.00;100478.59;5010602;28;20215;-60
2023/07/28 06:50:11;;;;;;;43.50;27.38;;;;;;;17.30;100.00;100482.06;5010052;28;20112;-60
2023/07/28 06:52:37;;;;;;;39.42;26.45;;;;;;;17.32;100.00;100482.06;5010175;28;20036;-60
2023/07/28 06:55:03;;;;;;;36.72;25.70;;;;;;;17.37;100.00;100486.44;5010041;28;20144;-61
2023/07/28 06:57:28;;;;;;;36.67;25.23;;;;;;;17.40;100.00;100490.78;5010261;28;20484;-60
2023/07/28 06:59:54;;;;;;;33.95;24.10;;;;;;;17.42;100.00;100486.41;5010029;28;20026;-61
2023/07/28 07:02:19;;;;;;;33.88;24.05;;;;;;;17.45;100.00;100489.00;5009516;28;20466;-61
2023/07/28 07:04:44;;;;;;;36.03;24.85;;;;;;;17.46;100.00;100495.13;5009744;28;20029;-61
2023/07/28 07:07:10;;;;;;;31.75;22.30;;;;;;;17.48;100.00;100499.50;5010216;28;20044;-60
2023/07/28 07:09:36;;;;;;;28.90;21.55;;;;;;;17.46;100.00;100500.38;5010187;28;20245;-60
2023/07/28 07:12:01;;;;;;;32.42;22.33;;;;;;;17.48;100.00;100504.75;5009632;28;20032;-60
2023/07/28 07:14:26;;;;;;;30.63;21.92;;;;;;;17.50;100.00;100508.22;5009856;28;20026;-60
2023/07/28 07:16:52;;;;;;;28.15;19.98;;;;;;;17.52;100.00;100506.47;5009604;28;20306;-60
2023/07/28 07:19:17;;;;;;;27.40;19.90;;;;;;;17.53;100.00;100507.34;5009424;28;20026;-61
2023/07/28 07:21:44;;;;;;;25.33;19.13;;;;;;;17.52;100.00;100511.69;5009836;28;20030;-61
2023/07/28 07:24:13;;;;;;;26.15;19.02;;;;;;;17.54;100.00;100514.31;5009515;28;20030;-60
2023/07/28 07:26:39;;;;;;;24.00;18.90;;;;;;;17.56;100.00;100512.56;5009212;28;20032;-60
2023/07/28 07:29:04;;;;;;;26.67;18.10;;;;;;;17.59;100.00;100516.94;5009462;28;20117;-60
2023/07/28 07:31:30;;;;;;;26.05;18.52;;;;;;;17.61;100.00;100521.28;5009346;28;20121;-60
2023/07/28 07:33:55;;;;;;;24.85;17.50;;;;;;;17.63;100.00;100521.28;5009313;28;20025;-60
2023/07/28 07:36:20;;;;;;;23.05;17.33;;;;;;;17.62;100.00;100522.16;5008903;28;20037;-60
2023/07/28 07:38:46;;;;;;;22.55;16.67;;;;;;;17.63;100.00;100529.13;5009313;28;20092;-60
2023/07/28 07:41:12;;;;;;;22.88;16.45;;;;;;;17.64;100.00;100525.66;5009567;28;20021;-61
2023/07/28 07:43:38;;;;;;;19.45;16.05;;;;;;;17.67;100.00;100525.63;5009451;28;20061;-61
2023/07/28 07:46:03;;;;;;;17.30;14.68;;;;;;;17.67;100.00;100523.03;5008074;28;20553;-60
2023/07/28 07:48:28;;;;;;;19.23;15.02;;;;;;;17.70;100.00;100525.63;5009449;28;20028;-61
2023/07/28 07:50:54;;;;;;;16.95;14.63;;;;;;;17.73;100.00;100530.00;5009536;28;20022;-61
2023/07/28 07:53:19;;;;;;;20.00;15.00;;;;;;;17.77;100.00;100531.75;5009090;28;20113;-61
2023/07/28 07:55:45;;;;;;;17.23;13.02;;;;;;;17.79;100.00;100534.34;5008333;28;20053;-60
2023/07/28 07:58:10;;;;;;;16.05;12.68;;;;;;;17.81;100.00;100530.00;5008844;28;20029;-61
2023/07/28 08:00:38;;;;;;;14.48;11.77;;;;;;;17.80;100.00;100534.34;5009375;28;20486;-61
2023/07/28 08:03:04;;;;;;;13.68;12.18;;;;;;;17.84;100.00;100543.06;5008740;28;20053;-60
2023/07/28 08:05:30;;;;;;;14.95;12.63;;;;;;;17.86;100.00;100526.44;5008869;28;20444;-60
2023/07/28 08:07:55;;;;;;;15.32;12.73;;;;;;;17.82;100.00;100532.59;5008704;28;20109;-60
2023/07/28 08:10:20;;;;;;;14.80;12.50;;;;;;;17.84;100.00;100538.72;5008042;28;20033;-60
2023/07/28 08:12:47;;;;;;;13.18;11.77;;;;;;;17.88;100.00;100539.56;5009547;28;20166;-60
2023/07/28 08:15:12;;;;;;;12.80;11.15;;;;;;;17.86;100.00;100541.31;5008846;28;20022;-60
2023/07/28 08:17:38;;;;;;;13.35;11.40;;;;;;;17.89;100.00;100543.94;5009162;28;20026;-60
2023/07/28 08:20:05;;;;;;;13.63;12.23;;;;;;;17.92;100.00;100551.78;5008322;28;20036;-60
2023/07/28 08:22:30;;;;;;;14.68;12.85;;;;;;;17.94;100.00;100546.53;5009025;28;20117;-60
2023/07/28 08:24:56;;;;;;;13.05;11.70;;;;;;;17.92;100.00;100549.16;5008550;28;20046;-60
2023/07/28 08:27:21;;;;;;;12.43;11.13;;;;;;;17.94;100.00;100550.03;5008429;28;20029;-61
2023/07/28 08:29:46;;;;;;;12.35;11.05;;;;;;;17.95;100.00;100548.28;5008415;28;20386;-60
2023/07/28 08:32:12;;;;;;;12.52;10.90;;;;;;;17.96;100.00;100550.91;5008158;28;20033;-60
2023/07/28 08:34:37;;;;;;;12.05;10.23;;;;;;;17.98;100.00;100546.53;5008372;28;20018;-60
2023/07/28 08:37:02;;;;;;;11.80;10.13;;;;;;;17.97;100.00;100560.50;5008331;28;20429;-60
2023/07/28 08:39:27;;;;;;;11.50;9.98;;;;;;;17.97;100.00;100560.50;5008986;28;20026;-60
2023/07/28 08:42:03;;;;;;;10.65;9.65;;;;;;;18.00;100.00;100554.38;5008311;28;20026;-60
2023/07/28 08:44:34;;;;;;;9.63;8.80;;;;;;;18.02;100.00;100557.00;5008137;28;20462;-60
2023/07/28 08:47:06;;;;;;;9.85;9.05;;;;;;;18.11;100.00;100556.97;5008145;28;20022;-60
2023/07/28 08:49:35;;;;;;;9.95;9.00;;;;;;;18.24;100.00;100563.91;5008315;28;20022;-60
2023/07/28 08:52:00;;;;;;;9.07;8.18;;;;;;;18.34;100.00;100563.88;5007911;28;20080;-61
2023/07/28 08:54:26;;;;;;;8.73;8.02;;;;;;;18.43;100.00;100566.47;5007735;28;20026;-60
2023/07/28 08:56:52;;;;;;;9.50;8.65;;;;;;;18.50;100.00;100564.69;5008333;28;20402;-60
2023/07/28 08:59:25;;;;;;;8.15;7.43;;;;;;;18.58;100.00;100564.66;5008393;28;20033;-60
2023/07/28 09:01:50;;;;;;;8.38;7.55;;;;;;;18.66;100.00;100565.47;5008343;28;20057;-60
2023/07/28 09:04:16;;;;;;;7.90;7.30;;;;;;;18.73;100.00;100571.53;5008305;28;20026;-60
2023/07/28 09:06:45;;;;;;;7.30;6.68;;;;;;;18.76;100.00;100563.66;5008056;28;20382;-60
2023/07/28 09:09:11;;;;;;;7.90;7.30;;;;;;;18.86;100.00;100563.56;5008272;28;20061;-60
2023/07/28 09:11:47;;;;;;;7.85;7.15;;;;;;;18.95;100.00;100572.28;5008103;28;20111;-60
2023/07/28 09:14:14;;;;;;;6.82;6.32;;;;;;;19.03;100.00;100568.72;5008215;28;20397;-60
2023/07/28 09:16:39;;;;;;;7.22;6.63;;;;;;;19.18;100.00;100566.00;5007993;28;20467;-60
2023/07/28 09:19:06;;;;;;;7.18;6.63;;;;;;;19.28;100.00;100563.31;5007900;28;20022;-61
2023/07/28 09:21:32;;;;;;;7.85;7.25;;;;;;;19.36;100.00;100574.59;5008153;28;20030;-60
2023/07/28 09:24:00;;;;;;;7.28;6.75;;;;;;;19.44;100.00;100574.53;5008443;28;20276;-61
2023/07/28 09:26:36;;;;;;;7.28;6.78;;;;;;;19.49;100.00;100571.84;5008220;28;20036;-60
2023/07/28 09:29:11;;;;;;;8.02;7.32;;;;;;;19.57;100.00;100577.94;5008167;28;20045;-61
2023/07/28 09:31:36;;;;;;;8.07;7.45;;;;;;;19.64;100.00;100576.09;5007911;28;20104;-61
2023/07/28 09:34:01;;;;;;;7.82;7.13;;;;;;;19.68;100.00;100572.53;5008524;28;20436;-61
2023/07/28 09:36:27;;;;;;;8.60;7.95;;;;;;;19.77;100.00;100582.13;5008423;28;20628;-60
2023/07/28 09:38:54;;;;;;;8.60;7.90;;;;;;;19.79;100.00;100569.78;5007885;28;20036;-61
2023/07/28 09:41:21;;;;;;;7.65;7.13;;;;;;;19.89;100.00;100566.22;5007513;28;20030;-61
2023/07/28 09:43:49;;;;;;;8.25;7.55;;;;;;;20.04;100.00;100569.50;5008637;28;20428;-61
2023/07/28 09:46:17;;;;;;;8.30;7.60;;;;;;;20.18;100.00;100565.91;5011685;28;20021;-61
2023/07/28 09:48:48;;;;;;;8.55;7.85;;;;;;;20.30;100.00;100573.63;5011477;28;20033;-61
2023/07/28 09:51:17;;;;;;;7.65;7.15;;;;;;;20.39;100.00;100573.53;5011753;28;20042;-61
2023/07/28 09:53:58;;;;;;;6.80;6.30;;;;;;;20.42;100.00;100574.38;5011314;28;20030;-61
2023/07/28 09:56:27;;;;;;;8.23;7.53;;;;;;;20.51;100.00;100579.47;5010813;28;20054;-61
2023/07/28 09:58:53;;;;;;;7.00;6.50;;;;;;;20.59;100.00;100576.75;5011289;28;20091;-60
2023/07/28 10:01:19;;;;;;;6.35;5.85;;;;;;;20.54;100.00;100579.47;5011169;28;20430;-61
2023/07/28 10:03:45;;;;;;;5.43;5.10;;;;;;;20.63;100.00;100574.06;5010243;28;20080;-61
2023/07/28 10:06:12;;;;;;;5.95;5.45;;;;;;;20.76;100.00;100573.88;5011479;28;20042;-60
2023/07/28 10:08:38;;;;;;;5.22;4.75;;;;;;;20.96;100.00;100575.34;5010603;28;20036;-62
2023/07/28 10:11:04;;;;;;;5.28;4.82;;;;;;;21.08;100.00;100576.94;5010916;28;20030;-61
2023/07/28 10:13:40;;;;;;;5.35;4.78;;;;;;;21.01;100.00;100588.47;5011321;28;20090;-61
2023/07/28 10:16:05;;;;;;;4.10;3.90;;;;;;;20.99;100.00;100585.88;5011047;28;20430;-60
2023/07/28 10:18:30;;;;;;;4.10;3.90;;;;;;;20.95;100.00;100590.31;5009681;28;20033;-61
2023/07/28 10:21:13;;;;;;;3.70;3.40;;;;;;;20.84;100.00;100590.44;5010489;28;20486;-61
2023/07/28 10:23:39;;;;;;;3.65;3.45;;;;;;;20.86;100.00;100586.03;5009411;28;20061;-61
2023/07/28 10:26:07;;;;;;;3.58;3.38;;;;;;;20.89;100.00;100590.34;5010835;28;20037;-61
2023/07/28 10:28:40;;;;;;;3.83;3.63;;;;;;;20.90;100.00;100591.25;5011133;28;20025;-61
2023/07/28 10:31:07;;;;;;;4.72;4.32;;;;;;;20.95;100.00;100589.44;5010670;28;20026;-61
2023/07/28 10:33:50;;;;;;;4.90;4.60;;;;;;;20.97;100.00;100588.53;5011000;28;20029;-61
2023/07/28 10:36:32;;;;;;;3.90;3.50;;;;;;;21.01;100.00;100593.75;5010494;28;20033;-61
2023/07/28 10:39:01;;;;;;;4.28;3.97;;;;;;;21.01;100.00;100589.34;5009971;28;20470;-61
2023/07/28 10:41:26;;;;;;;5.90;4.68;;;;;;;20.97;100.00;100587.66;5010826;28;20068;-60
2023/07/28 10:43:51;;;;;;;4.22;3.95;;;;;;;21.07;100.00;100583.97;5010324;28;20053;-61
2023/07/28 10:46:20;;;;;;;4.75;4.35;;;;;;;21.23;100.00;100588.97;5010486;28;20038;-61
2023/07/28 10:48:48;;;;;;;4.03;3.83;;;;;;;21.34;100.00;100592.31;5010640;28;20334;-61
2023/07/28 10:51:33;;;;;;;4.57;4.18;;;;;;;21.46;100.00;100590.38;5009571;28;20026;-61
2023/07/28 10:54:00;;;;;;;2.90;2.70;;;;;;;21.58;100.00;100592.78;5009705;28;20034;-61
2023/07/28 10:56:26;;;;;;;3.10;2.90;;;;;;;21.75;100.00;100586.31;5009478;28;20569;-61
2023/07/28 10:59:06;;;;;;;2.80;2.60;;;;;;;21.91;100.00;100586.06;5009943;28;20133;-61
2023/07/28 11:01:36;;;;;;;2.38;2.17;;;;;;;22.02;100.00;100578.81;5009867;28;20037;-60
2023/07/28 11:04:19;;;;;;;1.83;1.73;;;;;;;22.13;100.00;100575.06;5010231;28;20034;-61
2023/07/28 11:06:47;;;;;;;2.47;1.77;;;;;;;22.22;100.00;100579.31;5010216;28;20071;-61